Time;durP1;ratioP1;P1;durP2;ratioP2;P2;SDS_P1;SDS_P2;PMS_P1;PMS_P2;Temp;Humidity;BMP_temperature;BMP_pressure;BME280_temperature;BME280_humidity;BME280_pressure;Samples;Min_cycle;Max_cycle;Signal;HPM_P1;HPM_P2
2023/07/04 00:01:05;;;;;;;;;;;;;;;-140.72;100.00;52626.25;4968110;28;20246;-69
2023/07/04 00:03:31;;;;;;;;;;;;;;;-140.72;100.00;52628.28;4990475;28;19922;-68
2023/07/04 00:05:57;;;;;;;;;;;;;;;-140.72;100.00;52624.22;4981700;28;19926;-68
2023/07/04 00:08:24;;;;;;;;;;;;;;;-140.72;100.00;52628.28;4990343;28;19928;-69
2023/07/04 00:10:50;;;;;;;;;;;;;;;-140.72;100.00;52624.22;4990694;28;20339;-69
2023/07/04 00:13:16;;;;;;;;;;;;;;;-140.72;100.00;52595.81;4985108;28;19976;-68
2023/07/04 00:15:49;;;;;;;;;;;;;;;-140.72;100.00;52630.31;4964269;28;19930;-69
2023/07/04 00:18:15;;;;;;;;;;;;;;;-140.72;100.00;52636.38;4989743;28;19918;-69
2023/07/04 00:20:40;;;;;;;;;;;;;;;-140.72;100.00;52636.38;4973487;28;19922;-69
2023/07/04 00:23:05;;;;;;;;;;;;;;;-140.72;100.00;52632.34;4989349;28;20372;-68
2023/07/04 00:25:31;;;;;;;;;;;;;;;-140.72;100.00;52656.69;4982703;28;19929;-68
2023/07/04 00:27:57;;;;;;;;;;;;;;;-140.72;100.00;52642.47;4959113;28;20407;-69
2023/07/04 00:30:22;;;;;;;;;;;;;;;-140.72;100.00;52662.78;4988241;28;19929;-69
2023/07/04 00:32:47;;;;;;;;;;;;;;;-140.72;100.00;52650.59;4961086;28;20013;-69
2023/07/04 00:35:13;;;;;;;;;;;;;;;-140.72;100.00;52638.41;4986605;28;19922;-69
2023/07/04 00:37:38;;;;;;;;;;;;;;;-140.72;100.00;52630.31;4972651;28;19984;-69
2023/07/04 00:40:08;;;;;;;;;;;;;;;-140.72;100.00;52654.66;4990023;28;19922;-69
2023/07/04 00:42:36;;;;;;;;;;;;;;;-140.72;100.00;52626.25;4988636;28;19929;-69
2023/07/04 00:45:04;;;;;;;;;;;;;;;-140.72;100.00;52646.53;4971803;28;19921;-69
2023/07/04 00:47:43;;;;;;;;;;;;;;;-140.72;100.00;52636.38;4988836;28;20358;-69
2023/07/04 00:50:09;;;;;;;;;;;;;;;-140.72;100.00;52674.94;4970978;28;19977;-69
2023/07/04 00:52:35;;;;;;;;;;;;;;;-140.72;100.00;52672.91;4993729;28;19922;-69
2023/07/04 00:55:01;;;;;;;;;;;;;;;-140.72;100.00;52656.69;4990641;28;19940;-69
2023/07/04 00:57:31;;;;;;;;;;;;;;;-140.72;100.00;52650.59;4992643;28;19930;-69
2023/07/04 01:00:05;;;;;;;;;;;;;;;-140.72;100.00;52634.38;4992371;28;19930;-69
2023/07/04 01:02:33;;;;;;;;;;;;;;;-140.72;100.00;52632.34;4990030;28;19953;-69
2023/07/04 01:04:59;;;;;;;;;;;;;;;-140.72;100.00;52614.06;4988285;28;19987;-69
2023/07/04 01:07:24;;;;;;;;;;;;;;;-140.72;100.00;52638.41;4998985;28;19948;-69
2023/07/04 01:09:52;;;;;;;;;;;;;;;-140.72;100.00;52662.78;4969045;28;19937;-69
2023/07/04 01:12:18;;;;;;;;;;;;;;;-140.72;100.00;52660.75;4992109;28;19922;-69
2023/07/04 01:14:43;;;;;;;;;;;;;;;-140.72;100.00;52693.22;4986121;28;20438;-69
2023/07/04 01:17:08;;;;;;;;;;;;;;;-140.72;100.00;52648.56;4994330;28;19949;-69
2023/07/04 01:19:36;;;;;;;;;;;;;;;-140.72;100.00;52654.66;4992582;28;19929;-69
2023/07/04 01:22:21;;;;;;;;;;;;;;;-140.72;100.00;52646.53;4990264;28;19964;-69
2023/07/04 01:24:53;;;;;;;;;;;;;;;-140.72;100.00;52666.84;4990540;28;19928;-69
2023/07/04 01:27:19;;;;;;;;;;;;;;;-140.72;100.00;52652.63;4977347;28;19925;-69
2023/07/04 01:29:45;;;;;;;;;;;;;;;-140.72;100.00;52646.53;4989378;28;20311;-69
2023/07/04 01:32:10;;;;;;;;;;;;;;;-140.72;100.00;52670.88;4994777;28;19921;-69
2023/07/04 01:34:36;;;;;;;;;;;;;;;-140.72;100.00;52691.19;4992271;28;20012;-69
2023/07/04 01:37:02;;;;;;;;;;;;;;;-140.72;100.00;52676.97;4978577;28;19989;-69
2023/07/04 01:39:27;;;;;;;;;;;;;;;-140.72;100.00;52652.63;4995584;28;20005;-69
2023/07/04 01:41:52;;;;;;;;;;;;;;;-140.72;100.00;52646.53;4996635;28;19936;-69
2023/07/04 01:44:18;;;;;;;;;;;;;;;-140.72;100.00;52668.84;4993993;28;20354;-69
2023/07/04 01:46:43;;;;;;;;;;;;;;;-140.72;100.00;52652.63;4996709;28;19972;-68
2023/07/04 01:49:09;;;;;;;;;;;;;;;-140.72;100.00;52697.28;4976431;28;20295;-68
2023/07/04 01:51:38;;;;;;;;;;;;;;;-140.72;100.00;52699.31;4993914;28;20350;-68
2023/07/04 01:54:05;;;;;;;;;;;;;;;-140.72;100.00;52679.00;4990349;28;20439;-68
2023/07/04 01:56:31;;;;;;;;;;;;;;;-140.72;100.00;52642.47;4979509;28;20303;-68
2023/07/04 01:58:56;;;;;;;;;;;;;;;-140.72;100.00;52670.88;4992607;28;20337;-68
2023/07/04 02:01:22;;;;;;;;;;;;;;;-140.72;100.00;52650.59;4992442;28;19922;-68
2023/07/04 02:03:47;;;;;;;;;;;;;;;-140.72;100.00;52668.84;4990885;28;19927;-69
2023/07/04 02:06:14;;;;;;;;;;;;;;;-140.72;100.00;52626.25;4992815;28;19925;-69
2023/07/04 02:08:39;;;;;;;;;;;;;;;-140.72;100.00;52658.72;4988802;28;20013;-69
2023/07/04 02:11:04;;;;;;;;;;;;;;;-140.72;100.00;52646.53;4975648;28;19957;-69
2023/07/04 02:13:30;;;;;;;;;;;;;;;-140.72;100.00;52681.03;4991100;28;19925;-69
2023/07/04 02:15:55;;;;;;;;;;;;;;;-140.72;100.00;52624.22;4975488;28;19941;-69
2023/07/04 02:18:21;;;;;;;;;;;;;;;-140.72;100.00;52648.56;4975651;28;19918;-69
2023/07/04 02:20:46;;;;;;;;;;;;;;;-140.72;100.00;52650.59;4987155;28;19929;-67
2023/07/04 02:23:11;;;;;;;;;;;;;;;-140.72;100.00;52660.75;4991950;28;19925;-68
2023/07/04 02:25:40;;;;;;;;;;;;;;;-140.72;100.00;52632.34;4974459;28;20291;-68
2023/07/04 02:28:06;;;;;;;;;;;;;;;-140.72;100.00;52642.47;4989147;28;20462;-69
2023/07/04 02:30:31;;;;;;;;;;;;;;;-140.72;100.00;52650.59;4991756;28;19925;-69
2023/07/04 02:32:56;;;;;;;;;;;;;;;-140.72;100.00;52620.16;4969557;28;19930;-69
2023/07/04 02:35:21;;;;;;;;;;;;;;;-140.72;100.00;52646.53;4983815;28;20452;-69
2023/07/04 02:37:47;;;;;;;;;;;;;;;-140.72;100.00;52662.78;4986415;28;20053;-69
2023/07/04 02:40:13;;;;;;;;;;;;;;;-140.72;100.00;52634.38;4992428;28;19976;-69
2023/07/04 02:42:38;;;;;;;;;;;;;;;-140.72;100.00;52636.38;4984447;28;20328;-69
2023/07/04 02:45:06;;;;;;;;;;;;;;;-140.72;100.00;52672.91;4980084;28;19918;-68
2023/07/04 02:47:32;;;;;;;;;;;;;;;-140.72;100.00;52676.97;4975482;28;19925;-69
2023/07/04 02:49:57;;;;;;;;;;;;;;;-140.72;100.00;52674.94;4975597;28;19918;-69
2023/07/04 02:52:23;;;;;;;;;;;;;;;-140.72;100.00;52656.69;4990188;28;19964;-69
2023/07/04 02:54:49;;;;;;;;;;;;;;;-140.72;100.00;52668.84;4974653;28;20363;-69
2023/07/04 02:57:16;;;;;;;;;;;;;;;-140.72;100.00;52670.88;4991671;28;19925;-69
2023/07/04 02:59:41;;;;;;;;;;;;;;;-140.72;100.00;52676.97;4983514;28;19918;-69
2023/07/04 03:02:06;;;;;;;;;;;;;;;-140.72;100.00;52664.81;4988746;28;19918;-69
2023/07/04 03:04:32;;;;;;;;;;;;;;;-140.72;100.00;52711.47;4982917;28;19922;-69
2023/07/04 03:06:57;;;;;;;;;;;;;;;-140.72;100.00;52654.66;4986388;28;19926;-69
2023/07/04 03:09:23;;;;;;;;;;;;;;;-140.72;100.00;52666.84;4986054;28;19921;-69
2023/07/04 03:11:48;;;;;;;;;;;;;;;-140.72;100.00;52662.78;4978335;28;19941;-69
2023/07/04 03:14:13;;;;;;;;;;;;;;;-140.72;100.00;52610.00;4981554;28;20306;-69
2023/07/04 03:16:38;;;;;;;;;;;;;;;-140.72;100.00;52648.56;4993483;28;19944;-69
2023/07/04 03:19:04;;;;;;;;;;;;;;;-140.72;100.00;52646.53;4980381;28;19961;-69
2023/07/04 03:21:29;;;;;;;;;;;;;;;-140.72;100.00;52674.94;4983861;28;19953;-69
2023/07/04 03:23:54;;;;;;;;;;;;;;;-140.72;100.00;52668.84;4976301;28;19918;-69
2023/07/04 03:26:20;;;;;;;;;;;;;;;-140.72;100.00;52670.88;4991583;28;19933;-69
2023/07/04 03:28:45;;;;;;;;;;;;;;;-140.72;100.00;52630.31;4994856;28;19969;-69
2023/07/04 03:31:10;;;;;;;;;;;;;;;-140.72;100.00;52664.81;4981755;28;19918;-69
2023/07/04 03:33:36;;;;;;;;;;;;;;;-140.72;100.00;52672.91;4993537;28;19918;-69
2023/07/04 03:36:01;;;;;;;;;;;;;;;-140.72;100.00;52658.72;4993481;28;19922;-69
2023/07/04 03:38:27;;;;;;;;;;;;;;;-140.72;100.00;52670.88;4986742;28;20217;-68
2023/07/04 03:40:52;;;;;;;;;;;;;;;-140.72;100.00;52658.72;4984740;28;19924;-68
2023/07/04 03:43:17;;;;;;;;;;;;;;;-140.72;100.00;52654.66;4987915;28;20012;-69
2023/07/04 03:45:46;;;;;;;;;;;;;;;-140.72;100.00;52703.34;4993158;28;20302;-69
2023/07/04 03:48:11;;;;;;;;;;;;;;;-140.72;100.00;52709.44;4992915;28;19917;-70
2023/07/04 03:50:38;;;;;;;;;;;;;;;-140.72;100.00;52650.59;4986189;28;19918;-69
2023/07/04 03:53:03;;;;;;;;;;;;;;;-140.72;100.00;52683.06;4987474;28;19968;-70
2023/07/04 03:55:28;;;;;;;;;;;;;;;-140.72;100.00;52672.91;4983583;28;19972;-69
2023/07/04 03:57:54;;;;;;;;;;;;;;;-140.72;100.00;52662.78;4980875;28;19953;-69
2023/07/04 04:00:19;;;;;;;;;;;;;;;-140.72;100.00;52670.88;4984509;28;19922;-69
2023/07/04 04:02:44;;;;;;;;;;;;;;;-140.72;100.00;52646.53;4986060;28;20344;-69
2023/07/04 04:05:10;;;;;;;;;;;;;;;-140.72;100.00;52660.75;4985645;28;19993;-69
2023/07/04 04:07:35;;;;;;;;;;;;;;;-140.72;100.00;52685.09;5004325;28;19940;-69
2023/07/04 04:10:00;;;;;;;;;;;;;;;-140.72;100.00;52685.09;4984877;28;19929;-69
2023/07/04 04:12:25;;;;;;;;;;;;;;;-140.72;100.00;52679.00;4978586;28;20295;-69
2023/07/04 04:14:51;;;;;;;;;;;;;;;-140.72;100.00;52679.00;4983817;28;19922;-69
2023/07/04 04:17:16;;;;;;;;;;;;;;;-140.72;100.00;52640.44;4989655;28;20358;-69
2023/07/04 04:19:41;;;;;;;;;;;;;;;-140.72;100.00;52616.09;4992365;28;20321;-70
2023/07/04 04:22:06;;;;;;;;;;;;;;;-140.72;100.00;52638.41;4974189;28;19922;-69
2023/07/04 04:24:36;;;;;;;;;;;;;;;-140.72;100.00;52658.72;4984564;28;20296;-69
2023/07/04 04:27:03;;;;;;;;;;;;;;;-140.72;100.00;52658.72;4990090;28;19932;-69
2023/07/04 04:29:28;;;;;;;;;;;;;;;-140.72;100.00;52626.25;4988333;28;20380;-69
2023/07/04 04:31:53;;;;;;;;;;;;;;;-140.72;100.00;52628.28;4983240;28;19929;-69
2023/07/04 04:34:21;;;;;;;;;;;;;;;-140.72;100.00;52620.16;4988836;28;19929;-70
2023/07/04 04:36:47;;;;;;;;;;;;;;;-140.72;100.00;52632.34;4987875;28;20039;-71
2023/07/04 04:39:12;;;;;;;;;;;;;;;-140.72;100.00;52650.59;4983578;28;19918;-71
2023/07/04 04:41:37;;;;;;;;;;;;;;;-140.72;100.00;52650.59;4963765;28;20004;-71
2023/07/04 04:44:04;;;;;;;;;;;;;;;-140.72;100.00;52624.22;4991825;28;19981;-71
2023/07/04 04:46:30;;;;;;;;;;;;;;;-140.72;100.00;52614.06;4982782;28;19932;-70
2023/07/04 04:48:58;;;;;;;;;;;;;;;-140.72;100.00;52626.25;4987368;28;19917;-70
2023/07/04 04:51:23;;;;;;;;;;;;;;;-140.72;100.00;52654.66;4986125;28;19957;-69
2023/07/04 04:53:49;;;;;;;;;;;;;;;-140.72;100.00;52620.16;4989472;28;19922;-71
2023/07/04 04:56:14;;;;;;;;;;;;;;;-140.72;100.00;52642.47;4991180;28;20008;-69
2023/07/04 04:58:43;;;;;;;;;;;;;;;-140.72;100.00;52636.38;4988946;28;19922;-70
2023/07/04 05:01:16;;;;;;;;;;;;;;;-140.72;100.00;52618.13;4988838;28;19922;-70
2023/07/04 05:03:44;;;;;;;;;;;;;;;-140.72;100.00;52662.78;4985111;28;19945;-70
2023/07/04 05:06:10;;;;;;;;;;;;;;;-140.72;100.00;52624.22;4990982;28;20339;-70
2023/07/04 05:08:35;;;;;;;;;;;;;;;-140.72;100.00;52642.47;4981845;28;20017;-70
2023/07/04 05:11:04;;;;;;;;;;;;;;;-140.72;100.00;52642.47;4983445;28;19965;-70
2023/07/04 05:13:30;;;;;;;;;;;;;;;-140.72;100.00;52610.00;5003730;28;20383;-70
2023/07/04 05:16:02;;;;;;;;;;;;;;;-140.72;100.00;52599.88;4992328;28;19926;-69
2023/07/04 05:18:28;;;;;;;;;;;;;;;-140.72;100.00;52652.63;4973643;28;19978;-70
2023/07/04 05:21:04;;;;;;;;;;;;;;;-140.72;100.00;52589.72;4980768;28;20343;-69
2023/07/04 05:23:30;;;;;;;;;;;;;;;-140.72;100.00;52622.19;4991984;28;20319;-69
2023/07/04 05:25:59;;;;;;;;;;;;;;;-140.72;100.00;52634.38;4987256;28;19926;-69
2023/07/04 05:28:24;;;;;;;;;;;;;;;-140.72;100.00;52622.19;4984915;28;19917;-69
2023/07/04 05:30:56;;;;;;;;;;;;;;;-140.72;100.00;52618.13;4971362;28;21173;-70
2023/07/04 05:33:21;;;;;;;;;;;;;;;-140.72;100.00;52575.50;4991221;28;19918;-68
2023/07/04 05:35:48;;;;;;;;;;;;;;;-140.72;100.00;52605.94;4977682;28;20718;-68
2023/07/04 05:38:13;;;;;;;;;;;;;;;-140.72;100.00;52591.75;4986142;28;19925;-68
2023/07/04 05:40:40;;;;;;;;;;;;;;;-140.72;100.00;52597.84;4992521;28;19985;-68
2023/07/04 05:43:05;;;;;;;;;;;;;;;-140.72;100.00;52616.09;4992555;28;20255;-69
2023/07/04 05:45:30;;;;;;;;;;;;;;;-140.72;100.00;52567.41;4999341;28;19921;-68
2023/07/04 05:47:56;;;;;;;;;;;;;;;-140.72;100.00;52583.63;4986080;28;20275;-69
2023/07/04 05:50:21;;;;;;;;;;;;;;;-140.72;100.00;52581.59;4989877;28;19918;-69
2023/07/04 05:52:46;;;;;;;;;;;;;;;-140.72;100.00;52575.50;4980731;28;19923;-69
2023/07/04 05:55:12;;;;;;;;;;;;;;;-140.72;100.00;52530.88;4963003;28;19918;-70
2023/07/04 05:57:42;;;;;;;;;;;;;;;-140.72;100.00;52605.94;4976124;28;20382;-71
2023/07/04 06:00:11;;;;;;;;;;;;;;;-140.72;100.00;52612.03;4974997;28;20025;-71
2023/07/04 06:02:40;;;;;;;;;;;;;;;-140.72;100.00;52563.34;4986908;28;20384;-69
2023/07/04 06:05:06;;;;;;;;;;;;;;;-140.72;100.00;52581.59;4991015;28;20476;-70
2023/07/04 06:07:31;;;;;;;;;;;;;;;-140.72;100.00;52583.63;4981342;28;19918;-70
2023/07/04 06:09:57;;;;;;;;;;;;;;;-140.72;100.00;52565.38;4984736;28;19926;-70
2023/07/04 06:12:22;;;;;;;;;;;;;;;-140.72;100.00;52561.31;4995418;28;19922;-73
2023/07/04 06:14:47;;;;;;;;;;;;;;;-140.72;100.00;52557.25;4993578;28;19922;-71
2023/07/04 06:17:12;;;;;;;;;;;;;;;-140.72;100.00;52575.50;4982711;28;19918;-70
2023/07/04 06:19:38;;;;;;;;;;;;;;;-140.72;100.00;52549.13;4988633;28;19960;-70
2023/07/04 06:22:05;;;;;;;;;;;;;;;-140.72;100.00;52581.59;4988888;28;20388;-71
2023/07/04 06:24:31;;;;;;;;;;;;;;;-140.72;100.00;52549.13;4994557;28;19934;-70
2023/07/04 06:26:56;;;;;;;;;;;;;;;-140.72;100.00;52539.00;4983303;28;19929;-70
2023/07/04 06:29:22;;;;;;;;;;;;;;;-140.72;100.00;52512.59;4981245;28;19976;-70
2023/07/04 06:31:50;;;;;;;;;;;;;;;-140.72;100.00;52549.13;4984202;28;19922;-70
2023/07/04 06:34:15;;;;;;;;;;;;;;;-140.72;100.00;52591.75;4989181;28;19918;-70
2023/07/04 06:36:42;;;;;;;;;;;;;;;-140.72;100.00;52530.88;4984477;28;20071;-70
2023/07/04 06:39:08;;;;;;;;;;;;;;;-140.72;100.00;52557.25;4995394;28;19918;-69
2023/07/04 06:41:33;;;;;;;;;;;;;;;-140.72;100.00;52541.03;4991648;28;19980;-71
2023/07/04 06:43:58;;;;;;;;;;;;;;;-140.72;100.00;52539.00;4981936;28;19921;-69
2023/07/04 06:46:23;;;;;;;;;;;;;;;-140.72;100.00;52553.19;4981864;28;19918;-69
2023/07/04 06:48:49;;;;;;;;;;;;;;;-140.72;100.00;52549.13;4981887;28;19922;-69
2023/07/04 06:51:16;;;;;;;;;;;;;;;-140.72;100.00;52545.06;4981503;28;19918;-69
2023/07/04 06:53:42;;;;;;;;;;;;;;;-140.72;100.00;52545.06;4982501;28;19980;-69
2023/07/04 06:56:16;;;;;;;;;;;;;;;-140.72;100.00;52577.53;4995683;28;20326;-70
2023/07/04 06:58:43;;;;;;;;;;;;;;;-140.72;100.00;52532.91;4998667;28;19965;-70
2023/07/04 07:01:09;;;;;;;;;;;;;;;-140.72;100.00;52557.25;5001692;28;19977;-70
2023/07/04 07:03:34;;;;;;;;;;;;;;;-140.72;100.00;52559.28;4975150;28;20376;-70
2023/07/04 07:06:01;;;;;;;;;;;;;;;-140.72;100.00;52557.25;4977574;28;19926;-70
2023/07/04 07:08:26;;;;;;;;;;;;;;;-140.72;100.00;52524.78;4993997;28;20004;-70
2023/07/04 07:10:57;;;;;;;;;;;;;;;-140.72;100.00;52559.28;4992938;28;20012;-70
2023/07/04 07:13:22;;;;;;;;;;;;;;;-140.72;100.00;52545.06;4984599;28;20264;-70
2023/07/04 07:15:47;;;;;;;;;;;;;;;-140.72;100.00;52510.59;4986098;28;19922;-69
2023/07/04 07:18:12;;;;;;;;;;;;;;;-140.72;100.00;52496.38;4990410;28;20386;-69
2023/07/04 07:20:38;;;;;;;;;;;;;;;-140.72;100.00;52500.44;4994079;28;20438;-69
2023/07/04 07:23:03;;;;;;;;;;;;;;;-140.72;100.00;52490.28;4993089;28;19917;-70
2023/07/04 07:25:28;;;;;;;;;;;;;;;-140.72;100.00;52494.34;4985704;28;19933;-69
2023/07/04 07:27:53;;;;;;;;;;;;;;;-140.72;100.00;52490.28;4983797;28;19926;-70
2023/07/04 07:30:19;;;;;;;;;;;;;;;-140.72;100.00;52488.25;5008633;28;19945;-71
2023/07/04 07:32:44;;;;;;;;;;;;;;;-140.72;100.00;52484.19;5003000;28;20012;-69
2023/07/04 07:35:09;;;;;;;;;;;;;;;-140.72;100.00;52480.16;4988608;28;19918;-69
2023/07/04 07:37:35;;;;;;;;;;;;;;;-140.72;100.00;52449.72;4974155;28;19969;-69
2023/07/04 07:40:00;;;;;;;;;;;;;;;-140.72;100.00;52431.44;4986973;28;19936;-70
2023/07/04 07:42:25;;;;;;;;;;;;;;;-140.72;100.00;52435.50;4984098;28;20446;-69
2023/07/04 07:44:51;;;;;;;;;;;;;;;-140.72;100.00;52453.75;4987289;28;20063;-70
2023/07/04 07:47:16;;;;;;;;;;;;;;;-140.72;100.00;52459.84;4976559;28;19918;-69
2023/07/04 07:49:41;;;;;;;;;;;;;;;-140.72;100.00;52447.69;4977275;28;19926;-69
2023/07/04 07:52:06;;;;;;;;;;;;;;;-140.72;100.00;52423.31;4979213;28;19925;-69
2023/07/04 07:54:32;;;;;;;;;;;;;;;-140.72;100.00;52484.19;4991966;28;19928;-69
2023/07/04 07:56:57;;;;;;;;;;;;;;;-140.72;100.00;52453.75;4990973;28;19922;-69
2023/07/04 07:59:22;;;;;;;;;;;;;;;-140.72;100.00;52451.72;4993303;28;19926;-69
2023/07/04 08:01:48;;;;;;;;;;;;;;;-140.72;100.00;52472.03;4970582;28;20284;-73
2023/07/04 08:04:14;;;;;;;;;;;;;;;-140.72;100.00;52451.72;4984012;28;19925;-69
2023/07/04 08:06:41;;;;;;;;;;;;;;;-140.72;100.00;52472.03;4990636;28;19949;-69
2023/07/04 08:09:08;;;;;;;;;;;;;;;-140.72;100.00;52437.53;4971839;28;19918;-69
2023/07/04 08:11:34;;;;;;;;;;;;;;;-140.72;100.00;52461.88;4975913;28;19922;-69
2023/07/04 08:13:59;;;;;;;;;;;;;;;-140.72;100.00;52431.44;4975438;28;20459;-69
2023/07/04 08:16:26;;;;;;;;;;;;;;;-140.72;100.00;52449.72;4998950;28;19917;-70
2023/07/04 08:18:51;;;;;;;;;;;;;;;-140.72;100.00;52488.25;4992414;28;19989;-70
2023/07/04 08:21:16;;;;;;;;;;;;;;;-140.72;100.00;52421.28;4997835;28;19922;-69
2023/07/04 08:23:42;;;;;;;;;;;;;;;-140.72;100.00;52447.69;4990808;28;19933;-69
2023/07/04 08:26:07;;;;;;;;;;;;;;;-140.72;100.00;52451.72;4992436;28;20268;-69
2023/07/04 08:28:32;;;;;;;;;;;;;;;-140.72;100.00;52411.16;4976710;28;19918;-69
2023/07/04 08:31:05;;;;;;;;;;;;;;;-140.72;100.00;52413.19;4988223;28;19918;-70
2023/07/04 08:33:31;;;;;;;;;;;;;;;-140.72;100.00;52447.69;4984697;28;20020;-69
2023/07/04 08:36:06;;;;;;;;;;;;;;;-140.72;84.74;52476.09;4960621;28;19960;-69
2023/07/04 08:38:31;;;;;;;;;;;;;;;-140.72;100.00;52478.13;4980408;28;19965;-69
2023/07/04 08:40:57;;;;;;;;;;;;;;;-140.72;100.00;52480.16;4984665;28;20334;-69
2023/07/04 08:43:40;;;;;;;;;;;;;;;-140.72;89.68;52411.16;4980157;28;19989;-69
2023/07/04 08:46:07;;;;;;;;;;;;;;;-140.72;82.96;52415.22;4996786;28;20384;-69
2023/07/04 08:48:32;;;;;;;;;;;;;;;-140.72;51.99;52417.25;4993733;28;19932;-69
2023/07/04 08:50:59;;;;;;;;;;;;;;;-140.72;57.71;52401.00;4993844;28;19922;-69
2023/07/04 08:53:25;;;;;;;;;;;;;;;-140.72;38.35;52396.94;4989377;28;19929;-69
2023/07/04 08:55:55;;;;;;;;;;;;;;;-140.72;3.10;52342.16;4993065;28;20375;-69
2023/07/04 08:58:23;;;;;;;;;;;;;;;-140.72;0.00;52394.91;4992543;28;19943;-69
2023/07/04 09:00:48;;;;;;;;;;;;;;;-140.72;0.00;52378.69;4985472;28;19918;-69
2023/07/04 09:03:26;;;;;;;;;;;;;;;-140.72;0.00;52376.66;4978305;28;19999;-69
2023/07/04 09:06:06;;;;;;;;;;;;;;;-140.72;0.00;52321.88;4991433;28;19918;-69
2023/07/04 09:08:31;;;;;;;;;;;;;;;-140.72;0.00;52350.28;4989589;28;19925;-69
2023/07/04 09:11:01;;;;;;;;;;;;;;;-140.72;0.00;52315.78;4975124;28;19939;-69
2023/07/04 09:13:29;;;;;;;;;;;;;;;-140.72;0.00;52291.44;4993903;28;20012;-69
2023/07/04 09:15:57;;;;;;;;;;;;;;;-140.72;0.00;52327.97;4995725;28;20291;-70
2023/07/04 09:18:31;;;;;;;;;;;;;;;-140.72;0.00;52368.53;4995811;28;19988;-69
2023/07/04 09:21:02;;;;;;;;;;;;;;;-140.72;0.00;52376.66;4993819;28;19940;-70
2023/07/04 09:23:29;;;;;;;;;;;;;;;-140.72;0.00;52386.81;4991072;28;19922;-70
2023/07/04 09:25:55;;;;;;;;;;;;;;;-140.72;0.00;52334.03;4977903;28;20419;-69
2023/07/04 09:28:21;;;;;;;;;;;;;;;-140.72;0.00;52350.28;4990947;28;20299;-69
2023/07/04 09:30:46;;;;;;;;;;;;;;;-140.72;0.00;52340.13;4991539;28;19918;-69
2023/07/04 09:33:14;;;;;;;;;;;;;;;-140.72;0.00;52277.22;4992194;28;19925;-69
2023/07/04 09:35:39;;;;;;;;;;;;;;;-140.72;0.00;52261.00;4970523;28;19957;-69
2023/07/04 09:38:05;;;;;;;;;;;;;;;-140.72;0.00;52269.13;4975529;28;19965;-69
2023/07/04 09:40:41;;;;;;;;;;;;;;;-140.72;0.00;52323.91;4995467;28;19917;-70
2023/07/04 09:43:07;;;;;;;;;;;;;;;-140.72;0.00;52261.00;4990083;28;19925;-70
2023/07/04 09:45:32;;;;;;;;;;;;;;;-140.72;0.00;52238.69;4982535;28;19969;-69
2023/07/04 09:47:58;;;;;;;;;;;;;;;-140.72;0.00;52232.59;4995695;28;19918;-69
2023/07/04 09:50:25;;;;;;;;;;;;;;;-140.72;0.00;52242.75;4995551;28;19917;-69
2023/07/04 09:53:04;;;;;;;;;;;;;;;-140.72;0.00;52287.38;4968937;28;19953;-70
2023/07/04 09:55:30;;;;;;;;;;;;;;;-140.72;0.00;52291.44;4995099;28;19924;-70
2023/07/04 09:58:15;;;;;;;;;;;;;;;-140.72;0.00;52293.47;4995248;28;20100;-70
2023/07/04 10:00:40;;;;;;;;;;;;;;;-140.72;0.00;52228.53;4985413;28;19981;-70
2023/07/04 10:03:07;;;;;;;;;;;;;;;-140.72;0.00;52198.09;4992060;28;19921;-69
2023/07/04 10:05:33;;;;;;;;;;;;;;;-140.72;0.00;52226.50;4998047;28;19924;-70
2023/07/04 10:08:00;;;;;;;;;;;;;;;-140.72;0.00;52256.94;4965746;28;19926;-70
2023/07/04 10:10:26;;;;;;;;;;;;;;;-140.72;0.00;52263.03;4986061;28;19918;-70
2023/07/04 10:12:51;;;;;;;;;;;;;;;-140.72;0.00;52277.22;4990995;28;19929;-70
2023/07/04 10:15:26;;;;;;;;;;;;;;;-140.72;0.00;52323.91;4977711;28;19993;-70
2023/07/04 10:17:52;;;;;;;;;;;;;;;-140.72;0.00;52313.75;4993716;28;19983;-70
2023/07/04 10:20:18;;;;;;;;;;;;;;;-140.72;0.00;52348.25;4994338;28;20001;-70
2023/07/04 10:22:48;;;;;;;;;;;;;;;-140.72;0.00;52313.75;4997752;28;19922;-70
2023/07/04 10:25:16;;;;;;;;;;;;;;;-140.72;0.00;52291.44;4985114;28;20288;-70
2023/07/04 10:27:42;;;;;;;;;;;;;;;-140.72;0.00;52301.59;4963863;28;19930;-70
2023/07/04 10:30:16;;;;;;;;;;;;;;;-140.72;0.00;52340.13;4989817;28;19918;-73
2023/07/04 10:32:42;;;;;;;;;;;;;;;-140.72;0.00;52313.75;4992721;28;19957;-70
2023/07/04 10:35:18;;;;;;;;;;;;;;;-140.72;0.00;52309.69;4995180;28;19972;-71
2023/07/04 10:37:45;;;;;;;;;;;;;;;-140.72;0.00;52305.63;4979925;28;19918;-71
2023/07/04 10:40:16;;;;;;;;;;;;;;;-140.72;0.00;52275.19;4993980;28;19925;-70
2023/07/04 10:42:47;;;;;;;;;;;;;;;-140.72;0.00;52283.31;4989322;28;19953;-71
2023/07/04 10:45:15;;;;;;;;;;;;;;;-140.72;0.00;52234.63;4992294;28;19917;-70
2023/07/04 10:47:41;;;;;;;;;;;;;;;-140.72;0.00;52293.47;4987713;28;19922;-71
2023/07/04 10:50:26;;;;;;;;;;;;;;;-140.72;0.00;52293.47;4981549;28;19918;-70
2023/07/04 10:52:51;;;;;;;;;;;;;;;-140.72;0.00;52299.56;4991810;28;20393;-71
2023/07/04 10:55:20;;;;;;;;;;;;;;;-140.72;0.00;52224.47;4991242;28;19976;-70
2023/07/04 10:57:47;;;;;;;;;;;;;;;-140.72;0.00;52330.00;4974621;28;19917;-69
2023/07/04 11:00:33;;;;;;;;;;;;;;;-140.72;0.00;52285.34;4986173;28;20293;-69
2023/07/04 11:03:01;;;;;;;;;;;;;;;-140.72;0.00;52179.84;4954727;28;20295;-69
2023/07/04 11:05:38;;;;;;;;;;;;;;;-140.72;0.00;52135.19;4974569;28;19929;-70
2023/07/04 11:08:07;;;;;;;;;;;;;;;-140.72;0.00;52104.75;4984574;28;20380;-70
2023/07/04 11:10:38;;;;;;;;;;;;;;;-140.72;0.00;52116.94;4983528;28;20375;-70
2023/07/04 11:13:03;;;;;;;;;;;;;;;-140.72;0.00;52196.06;4993373;28;19928;-70
2023/07/04 11:15:31;;;;;;;;;;;;;;;-140.72;0.00;52346.22;4986900;28;19922;-70
2023/07/04 11:17:56;;;;;;;;;;;;;;;-140.72;0.00;52350.28;4989832;28;20017;-70
2023/07/04 11:20:23;;;;;;;;;;;;;;;-140.72;0.00;52338.09;4993481;28;19960;-70
2023/07/04 11:22:51;;;;;;;;;;;;;;;-140.72;0.00;52200.13;4974205;28;19921;-70
2023/07/04 11:25:35;;;;;;;;;;;;;;;-140.72;0.00;52167.66;4983919;28;19984;-70
2023/07/04 11:28:19;;;;;;;;;;;;;;;-140.72;0.00;52273.19;4970970;28;19929;-70
2023/07/04 11:30:46;;;;;;;;;;;;;;;-140.72;0.00;52301.59;4987538;28;19973;-70
2023/07/04 11:33:33;;;;;;;;;;;;;;;-140.72;0.00;52334.03;4993610;28;19925;-70
2023/07/04 11:36:02;;;;;;;;;;;;;;;-140.72;0.00;52281.28;4988139;28;19918;-70
2023/07/04 11:38:28;;;;;;;;;;;;;;;-140.72;0.00;52348.25;4995109;28;20399;-71
2023/07/04 11:40:54;;;;;;;;;;;;;;;-140.72;0.00;52372.59;4980779;28;19918;-70
2023/07/04 11:43:28;;;;;;;;;;;;;;;-140.72;0.00;52360.44;4981266;28;19953;-70
2023/07/04 11:45:55;;;;;;;;;;;;;;;-140.72;0.00;52273.19;4993190;28;20379;-70
2023/07/04 11:48:21;;;;;;;;;;;;;;;-140.72;0.00;52189.97;4975211;28;20021;-70
2023/07/04 11:50:48;;;;;;;;;;;;;;;-140.72;0.00;52311.72;4993198;28;19929;-70
2023/07/04 11:53:15;;;;;;;;;;;;;;;-140.72;0.00;52378.69;4981596;28;19972;-70
2023/07/04 11:55:41;;;;;;;;;;;;;;;-140.72;0.00;52360.44;4982204;28;19918;-70
2023/07/04 11:58:06;;;;;;;;;;;;;;;-140.72;0.00;52384.78;4983726;28;20360;-70
2023/07/04 12:00:38;;;;;;;;;;;;;;;-140.72;0.00;52346.22;4993859;28;19922;-70
2023/07/04 12:03:18;;;;;;;;;;;;;;;-140.72;0.00;52354.34;4983095;28;19973;-70
2023/07/04 12:05:43;;;;;;;;;;;;;;;-140.72;0.00;52287.38;4986102;28;19949;-70
2023/07/04 12:08:12;;;;;;;;;;;;;;;-140.72;0.00;52179.84;4983511;28;19926;-71
2023/07/04 12:10:38;;;;;;;;;;;;;;;-140.72;0.00;52200.13;4967835;28;20367;-72
2023/07/04 12:13:07;;;;;;;;;;;;;;;-140.72;0.00;52297.53;4985162;28;19918;-71
2023/07/04 12:15:33;;;;;;;;;;;;;;;-140.72;0.00;52309.69;4976165;28;19930;-70
2023/07/04 12:17:59;;;;;;;;;;;;;;;-140.72;0.00;52246.78;5003002;28;19929;-70
2023/07/04 12:20:30;;;;;;;;;;;;;;;-140.72;0.00;52236.66;4995691;28;19918;-71
2023/07/04 12:23:00;;;;;;;;;;;;;;;-140.72;0.00;52206.22;4985090;28;19919;-71